createdAt,value
2018-07-07T00:01:28.177Z,52.34
2018-07-07T00:03:57.366Z,52.35
2018-07-07T00:06:25.842Z,52.52
2018-07-07T00:08:58.404Z,53.02
2018-07-07T00:11:26.808Z,52.53
2018-07-07T00:13:55.282Z,52.72
2018-07-07T00:16:23.748Z,52.88
2018-07-07T00:18:52.080Z,53.31
2018-07-07T00:21:20.626Z,53.12
2018-07-07T00:23:49.053Z,52.81
2018-07-07T00:26:17.810Z,52.99
2018-07-07T00:28:46.635Z,53.63
2018-07-07T00:31:15.893Z,53.93
2018-07-07T00:33:44.251Z,53.56
2018-07-07T00:36:12.636Z,53.08
2018-07-07T00:38:41.929Z,53.68
2018-07-07T00:41:10.298Z,53.84
2018-07-07T00:43:38.687Z,54.24
2018-07-07T00:46:07.014Z,53.73
2018-07-07T00:48:39.326Z,53.80
2018-07-07T00:51:08.209Z,53.40
2018-07-07T00:53:36.447Z,53.71
2018-07-07T00:56:04.816Z,53.82
2018-07-07T00:58:33.129Z,54.00
2018-07-07T01:01:01.397Z,54.69
2018-07-07T01:03:29.796Z,53.43
2018-07-07T01:05:58.357Z,53.73
2018-07-07T01:08:26.757Z,53.45
2018-07-07T01:10:55.091Z,53.73
2018-07-07T01:13:23.634Z,54.62
2018-07-07T01:15:51.956Z,54.55
2018-07-07T01:18:21.600Z,54.19
2018-07-07T01:20:50.169Z,54.64
2018-07-07T01:23:19.070Z,54.60
2018-07-07T01:25:47.929Z,54.60
2018-07-07T01:28:16.213Z,54.42
2018-07-07T01:30:44.497Z,54.09
2018-07-07T01:33:12.870Z,54.06
2018-07-07T01:35:41.163Z,53.68
2018-07-07T01:38:09.734Z,53.13
2018-07-07T01:40:38.974Z,52.83
2018-07-07T01:43:07.345Z,53.41
2018-07-07T01:45:35.699Z,53.77
2018-07-07T01:48:04.201Z,53.67
2018-07-07T01:50:33.187Z,53.85
2018-07-07T01:53:01.623Z,54.54
2018-07-07T01:55:30.145Z,53.73
2018-07-07T01:57:59.489Z,53.43
2018-07-07T02:00:27.974Z,53.56
2018-07-07T02:02:56.985Z,53.20
2018-07-07T02:05:30.085Z,54.55
2018-07-07T02:07:58.991Z,54.47
2018-07-07T02:10:27.296Z,54.90
2018-07-07T02:12:55.516Z,54.69
2018-07-07T02:15:24.451Z,54.43
2018-07-07T02:17:52.865Z,54.65
2018-07-07T02:20:21.392Z,54.33
2018-07-07T02:22:50.766Z,53.93
2018-07-07T02:25:19.502Z,53.98
2018-07-07T02:27:47.822Z,53.35
2018-07-07T02:30:16.178Z,54.35
2018-07-07T02:32:45.307Z,53.20
2018-07-07T02:35:13.472Z,52.70
2018-07-07T02:37:41.771Z,53.47
2018-07-07T02:40:10.180Z,52.26
2018-07-07T02:42:38.556Z,52.79
2018-07-07T02:45:06.991Z,53.23
2018-07-07T02:47:35.164Z,54.00
2018-07-07T02:50:04.174Z,54.00
2018-07-07T02:52:33.113Z,53.69
2018-07-07T02:55:01.558Z,52.57
2018-07-07T02:57:30.134Z,52.73
2018-07-07T02:59:58.433Z,52.17
2018-07-07T03:02:27.310Z,51.89
2018-07-07T03:04:55.992Z,50.76
2018-07-07T03:07:24.371Z,51.04
2018-07-07T03:09:52.848Z,51.30
2018-07-07T03:12:21.189Z,51.20
2018-07-07T03:14:49.502Z,52.02
2018-07-07T03:17:18.606Z,51.67
2018-07-07T03:19:51.286Z,52.20
2018-07-07T03:22:23.933Z,53.11
2018-07-07T03:24:56.822Z,53.06
2018-07-07T03:27:25.814Z,52.62
2018-07-07T03:29:54.929Z,53.28
2018-07-07T03:32:23.298Z,53.13
2018-07-07T03:34:52.278Z,52.46
2018-07-07T03:37:25.521Z,52.52
2018-07-07T03:39:53.925Z,52.04
2018-07-07T03:42:22.480Z,52.81
2018-07-07T03:44:50.935Z,52.60
2018-07-07T03:47:19.353Z,52.03
2018-07-07T03:49:52.083Z,51.31
2018-07-07T03:52:20.477Z,50.67
2018-07-07T03:54:49.033Z,51.15
2018-07-07T03:57:17.293Z,51.06
2018-07-07T03:59:45.896Z,51.54
2018-07-07T04:02:14.726Z,51.60
2018-07-07T04:04:43.227Z,50.88
2018-07-07T04:07:11.625Z,50.53
2018-07-07T04:09:40.449Z,49.58
2018-07-07T04:12:08.865Z,49.50
2018-07-07T04:14:37.533Z,49.59
2018-07-07T04:17:06.008Z,49.36
2018-07-07T04:19:35.776Z,50.14
2018-07-07T04:22:08.112Z,48.96
2018-07-07T04:24:36.748Z,49.33
2018-07-07T04:27:05.065Z,47.86
2018-07-07T04:29:33.396Z,48.00
2018-07-07T04:32:01.882Z,48.23
2018-07-07T04:34:30.204Z,48.41
2018-07-07T04:36:58.843Z,48.27
2018-07-07T04:39:27.221Z,48.39
2018-07-07T04:41:55.786Z,48.23
2018-07-07T04:44:24.172Z,48.43
2018-07-07T04:46:53.570Z,47.67
2018-07-07T04:49:22.879Z,48.04
2018-07-07T04:51:51.358Z,48.40
2018-07-07T04:54:19.834Z,47.97
2018-07-07T04:56:48.242Z,48.11
2018-07-07T04:59:16.604Z,49.10
2018-07-07T05:01:45.090Z,49.23
2018-07-07T05:04:13.769Z,48.41
2018-07-07T05:06:42.233Z,48.55
2018-07-07T05:09:11.249Z,48.80
2018-07-07T05:11:40.639Z,48.65
2018-07-07T05:14:08.970Z,48.83
2018-07-07T05:16:38.816Z,48.59
2018-07-07T05:19:07.083Z,48.00
2018-07-07T05:21:35.241Z,48.16
2018-07-07T05:24:03.442Z,47.67
2018-07-07T05:26:31.613Z,47.22
2018-07-07T05:28:59.840Z,47.26
2018-07-07T05:31:28.080Z,47.30
2018-07-07T05:33:56.327Z,46.45
2018-07-07T05:36:24.702Z,46.51
2018-07-07T05:38:53.058Z,46.54
2018-07-07T05:44:23.737Z,46.13
2018-07-07T05:46:52.013Z,45.87
2018-07-07T05:49:20.237Z,45.60
2018-07-07T05:51:48.714Z,45.22
2018-07-07T05:54:16.847Z,45.41
2018-07-07T05:56:45.400Z,44.11
2018-07-07T05:59:13.693Z,41.96
2018-07-07T06:01:42.462Z,38.41
2018-07-07T06:04:10.725Z,38.64
2018-07-07T06:06:38.937Z,38.01
2018-07-07T06:09:07.259Z,36.71
2018-07-07T06:11:35.728Z,39.05
2018-07-07T06:14:04.208Z,38.73
2018-07-07T06:16:32.408Z,40.86
2018-07-07T06:19:00.742Z,42.14
2018-07-07T06:21:29.067Z,41.80
2018-07-07T06:23:57.360Z,40.29
2018-07-07T06:26:25.673Z,40.67
2018-07-07T06:28:53.974Z,39.41
2018-07-07T06:31:22.173Z,40.84
2018-07-07T06:33:50.586Z,40.83
2018-07-07T06:36:18.902Z,40.76
2018-07-07T06:38:47.667Z,42.30
2018-07-07T06:41:16.031Z,43.22
2018-07-07T06:43:44.490Z,42.14
2018-07-07T06:46:13.503Z,38.50
2018-07-07T06:48:42.002Z,36.60
2018-07-07T06:51:10.554Z,37.08
2018-07-07T06:53:39.231Z,37.78
2018-07-07T06:56:07.461Z,37.43
2018-07-07T06:58:36.077Z,36.88
2018-07-07T07:01:04.498Z,38.47
2018-07-07T07:03:32.807Z,34.66
2018-07-07T07:06:01.031Z,32.25
2018-07-07T07:08:31.309Z,29.79
2018-07-07T07:10:59.665Z,29.22
2018-07-07T07:13:27.901Z,28.22
2018-07-07T07:15:56.202Z,30.39
2018-07-07T07:18:24.418Z,30.10
2018-07-07T07:20:52.887Z,32.96
2018-07-07T07:23:21.186Z,34.43
2018-07-07T07:25:49.951Z,34.89
2018-07-07T07:28:18.135Z,33.62
2018-07-07T07:30:46.506Z,35.08
2018-07-07T07:33:14.783Z,35.17
2018-07-07T07:35:43.091Z,34.60
2018-07-07T07:38:11.416Z,36.27
2018-07-07T07:40:39.698Z,38.37
2018-07-07T07:43:08.154Z,37.08
2018-07-07T07:45:36.545Z,36.69
2018-07-07T07:48:04.833Z,37.56
2018-07-07T07:50:32.996Z,36.86
2018-07-07T07:53:01.368Z,37.67
2018-07-07T07:55:29.868Z,37.49
2018-07-07T07:57:58.114Z,38.50
2018-07-07T08:00:26.437Z,36.84
2018-07-07T08:02:55.027Z,36.14
2018-07-07T08:05:23.274Z,37.15
2018-07-07T08:07:51.696Z,37.28
2018-07-07T08:10:19.954Z,38.14
2018-07-07T08:12:48.526Z,38.66
2018-07-07T08:15:16.879Z,39.00
2018-07-07T08:17:45.199Z,38.88
2018-07-07T08:20:13.492Z,37.77
2018-07-07T08:22:42.258Z,37.17
2018-07-07T08:25:10.985Z,35.50
2018-07-07T08:27:39.243Z,35.55
2018-07-07T08:30:07.489Z,34.00
2018-07-07T08:32:35.745Z,35.33
2018-07-07T08:35:06.045Z,34.76
2018-07-07T08:37:34.903Z,33.91
2018-07-07T08:40:03.266Z,34.66
2018-07-07T08:42:31.798Z,34.31
2018-07-07T08:45:00.132Z,31.37
2018-07-07T08:47:28.715Z,31.33
2018-07-07T08:50:00.097Z,30.63
2018-07-07T08:52:28.533Z,29.01
2018-07-07T08:54:59.090Z,28.63
2018-07-07T08:57:27.427Z,28.27
2018-07-07T08:59:57.810Z,28.34
2018-07-07T09:02:26.489Z,29.49
2018-07-07T09:04:54.961Z,30.87
2018-07-07T09:07:23.358Z,30.96
2018-07-07T09:09:52.234Z,30.89
2018-07-07T09:12:20.426Z,30.79
2018-07-07T09:14:48.653Z,30.84
2018-07-07T09:17:16.834Z,29.50
2018-07-07T09:19:44.980Z,27.32
2018-07-07T09:22:13.194Z,28.28
2018-07-07T09:24:41.345Z,27.71
2018-07-07T09:27:09.666Z,28.35
2018-07-07T09:29:37.986Z,28.20
2018-07-07T09:32:06.288Z,28.63
2018-07-07T09:34:34.520Z,29.34
2018-07-07T09:37:02.910Z,28.54
2018-07-07T09:39:31.184Z,27.83
2018-07-07T09:41:59.546Z,28.91
2018-07-07T09:44:27.870Z,28.96
2018-07-07T09:46:56.329Z,28.70
2018-07-07T09:49:25.206Z,28.49
2018-07-07T09:51:53.512Z,27.87
2018-07-07T09:54:21.801Z,27.10
2018-07-07T09:56:50.077Z,29.35
2018-07-07T09:59:18.407Z,27.85
2018-07-07T10:01:46.840Z,28.80
2018-07-07T10:04:17.152Z,28.51
2018-07-07T10:06:45.803Z,27.32
2018-07-07T10:09:14.339Z,27.40
2018-07-07T10:11:43.154Z,27.74
2018-07-07T10:14:11.733Z,26.99
2018-07-07T10:16:40.146Z,26.83
2018-07-07T10:19:08.693Z,26.16
2018-07-07T10:21:37.415Z,26.14
2018-07-07T10:24:06.071Z,27.14
2018-07-07T10:26:34.533Z,27.37
2018-07-07T10:29:03.117Z,27.25
2018-07-07T10:31:31.456Z,27.46
2018-07-07T10:33:59.830Z,27.81
2018-07-07T10:36:28.365Z,26.68
2018-07-07T10:38:56.721Z,27.38
2018-07-07T10:41:24.964Z,27.48
2018-07-07T10:43:53.313Z,27.10
2018-07-07T10:46:21.819Z,26.73
2018-07-07T10:48:50.394Z,26.88
2018-07-07T10:51:18.571Z,26.86
2018-07-07T10:53:46.893Z,27.55
2018-07-07T10:56:15.225Z,27.06
2018-07-07T10:58:43.563Z,27.51
2018-07-07T11:01:11.768Z,27.47
2018-07-07T11:03:40.105Z,26.61
2018-07-07T11:06:08.685Z,26.61
2018-07-07T11:08:36.810Z,24.68
2018-07-07T11:11:04.985Z,24.31
2018-07-07T11:13:33.090Z,25.03
2018-07-07T11:16:02.944Z,26.43
2018-07-07T11:18:31.091Z,25.94
2018-07-07T11:20:59.399Z,25.80
2018-07-07T11:23:27.848Z,25.43
2018-07-07T11:25:56.178Z,25.70
2018-07-07T11:28:28.883Z,24.33
2018-07-07T11:30:57.124Z,23.65
2018-07-07T11:33:25.599Z,23.22
2018-07-07T11:35:53.895Z,23.35
2018-07-07T11:38:22.261Z,23.97
2018-07-07T11:40:50.637Z,23.69
2018-07-07T11:43:18.811Z,24.25
2018-07-07T11:45:47.114Z,23.66
2018-07-07T11:48:15.377Z,23.61
2018-07-07T11:50:43.631Z,23.17
2018-07-07T11:53:12.068Z,23.15
2018-07-07T11:55:42.504Z,22.72
2018-07-07T11:58:11.186Z,22.71
2018-07-07T12:00:39.733Z,23.32
2018-07-07T12:03:08.034Z,22.98
2018-07-07T12:05:36.285Z,22.90
2018-07-07T12:08:13.873Z,22.82
2018-07-07T12:10:33.372Z,22.71
2018-07-07T12:13:02.565Z,23.18
2018-07-07T12:15:30.970Z,22.00
2018-07-07T12:17:59.293Z,22.62
2018-07-07T12:20:27.721Z,23.80
2018-07-07T12:22:55.978Z,23.04
2018-07-07T12:25:24.482Z,22.67
2018-07-07T12:27:52.696Z,21.82
2018-07-07T12:30:20.947Z,22.41
2018-07-07T12:32:49.695Z,23.28
2018-07-07T12:35:18.071Z,22.74
2018-07-07T12:37:46.803Z,23.83
2018-07-07T12:40:15.154Z,22.40
2018-07-07T12:42:43.501Z,23.02
2018-07-07T12:45:12.048Z,21.72
2018-07-07T12:47:40.354Z,21.71
2018-07-07T12:50:08.905Z,23.42
2018-07-07T12:52:37.180Z,22.26
2018-07-07T12:55:05.557Z,21.91
2018-07-07T12:57:34.324Z,22.44
2018-07-07T13:00:03.134Z,22.24
2018-07-07T13:02:31.451Z,22.09
2018-07-07T13:04:59.731Z,22.20
2018-07-07T13:07:28.770Z,21.59
2018-07-07T13:09:57.185Z,21.61
2018-07-07T13:12:25.558Z,21.22
2018-07-07T13:14:53.899Z,21.32
2018-07-07T13:17:22.535Z,22.50
2018-07-07T13:19:50.880Z,21.14
2018-07-07T13:22:19.392Z,21.43
2018-07-07T13:24:47.694Z,21.56
2018-07-07T13:27:16.005Z,22.24
2018-07-07T13:29:44.516Z,21.32
2018-07-07T13:32:12.971Z,21.34
2018-07-07T13:34:41.276Z,21.08
2018-07-07T13:37:10.527Z,21.90
2018-07-07T13:39:40.031Z,22.78
2018-07-07T13:42:10.019Z,21.83
2018-07-07T13:44:38.676Z,21.76
2018-07-07T13:47:07.889Z,21.52
2018-07-07T13:49:36.981Z,20.58
2018-07-07T13:52:05.927Z,21.03
2018-07-07T13:54:34.353Z,21.50
2018-07-07T13:57:02.992Z,21.00
2018-07-07T13:59:31.692Z,20.77
2018-07-07T14:02:00.050Z,21.84
2018-07-07T14:04:28.432Z,20.95
2018-07-07T14:06:56.706Z,21.31
2018-07-07T14:09:25.149Z,20.82
2018-07-07T14:11:53.489Z,20.36
2018-07-07T14:14:21.829Z,20.76
2018-07-07T14:16:50.101Z,21.29
2018-07-07T14:19:18.923Z,22.04
2018-07-07T14:21:48.180Z,21.03
2018-07-07T14:24:16.528Z,21.77
2018-07-07T14:26:45.173Z,21.03
2018-07-07T14:29:13.718Z,20.60
2018-07-07T14:31:42.084Z,20.87
2018-07-07T14:34:10.430Z,20.67
2018-07-07T14:36:39.972Z,20.40
2018-07-07T14:39:10.048Z,20.45
2018-07-07T14:41:38.814Z,19.91
2018-07-07T14:44:09.036Z,20.93
2018-07-07T14:46:37.766Z,20.80
2018-07-07T14:49:06.438Z,21.10
2018-07-07T14:51:34.816Z,20.16
2018-07-07T14:54:03.271Z,20.95
2018-07-07T14:56:31.870Z,20.00
2018-07-07T14:59:00.133Z,20.82
2018-07-07T15:01:28.622Z,21.31
2018-07-07T15:04:01.476Z,21.16
2018-07-07T15:06:30.196Z,21.37
2018-07-07T15:08:58.470Z,21.23
2018-07-07T15:11:26.837Z,21.07
2018-07-07T15:13:55.208Z,21.74
2018-07-07T15:16:23.547Z,21.62
2018-07-07T15:18:51.901Z,21.50
2018-07-07T15:21:20.295Z,22.02
2018-07-07T15:23:48.626Z,22.07
2018-07-07T15:26:17.125Z,21.42
2018-07-07T15:28:45.387Z,21.59
2018-07-07T15:31:13.654Z,20.64
2018-07-07T15:33:42.008Z,20.44
2018-07-07T15:36:10.404Z,20.74
2018-07-07T15:38:38.805Z,21.85
2018-07-07T15:41:07.052Z,21.43
2018-07-07T15:43:35.516Z,21.80
2018-07-07T15:46:03.984Z,21.83
2018-07-07T15:48:32.206Z,22.21
2018-07-07T15:51:00.587Z,22.52
2018-07-07T15:53:28.858Z,22.55
2018-07-07T15:55:57.251Z,22.30
2018-07-07T15:58:25.581Z,22.32
2018-07-07T16:00:53.939Z,22.54
2018-07-07T16:03:22.329Z,22.81
2018-07-07T16:05:50.935Z,22.62
2018-07-07T16:08:19.228Z,22.85
2018-07-07T16:10:47.798Z,22.31
2018-07-07T16:13:16.315Z,22.59
2018-07-07T16:15:44.962Z,22.17
2018-07-07T16:18:13.525Z,22.52
2018-07-07T16:20:42.137Z,22.33
2018-07-07T16:23:10.893Z,22.37
2018-07-07T16:25:39.740Z,21.50
2018-07-07T16:28:08.358Z,21.26
2018-07-07T16:30:36.787Z,21.27
2018-07-07T16:33:06.474Z,21.36
2018-07-07T16:35:35.190Z,21.08
2018-07-07T16:38:04.182Z,21.39
2018-07-07T16:40:32.833Z,21.72
2018-07-07T16:43:01.343Z,21.67
2018-07-07T16:45:29.935Z,21.85
2018-07-07T16:47:58.783Z,22.38
2018-07-07T16:50:27.674Z,21.53
2018-07-07T16:52:56.071Z,22.16
2018-07-07T16:55:25.275Z,21.84
2018-07-07T16:57:53.736Z,22.54
2018-07-07T17:00:22.351Z,22.47
2018-07-07T17:02:52.127Z,22.34
2018-07-07T17:05:20.715Z,22.71
2018-07-07T17:07:49.692Z,21.86
2018-07-07T17:10:19.169Z,22.51
2018-07-07T17:12:48.092Z,21.87
2018-07-07T17:15:16.675Z,21.97
2018-07-07T17:17:45.603Z,22.50
2018-07-07T17:20:14.300Z,22.81
2018-07-07T17:22:42.973Z,22.71
2018-07-07T17:25:11.942Z,23.01
2018-07-07T17:27:40.524Z,22.14
2018-07-07T17:30:09.220Z,22.55
2018-07-07T17:32:37.889Z,22.39
2018-07-07T17:35:06.553Z,22.79
2018-07-07T17:37:35.351Z,22.72
2018-07-07T17:40:03.897Z,22.94
2018-07-07T17:42:32.390Z,22.51
2018-07-07T17:45:01.804Z,22.50
2018-07-07T17:47:30.603Z,23.01
2018-07-07T17:50:01.454Z,23.23
2018-07-07T17:52:30.654Z,23.39
2018-07-07T17:54:59.107Z,23.28
2018-07-07T17:57:27.737Z,23.40
2018-07-07T17:59:56.999Z,22.88
2018-07-07T18:02:25.748Z,22.99
2018-07-07T18:04:54.272Z,22.88
2018-07-07T18:07:22.697Z,23.09
2018-07-07T18:09:51.539Z,23.21
2018-07-07T18:12:19.898Z,23.23
2018-07-07T18:14:48.399Z,23.49
2018-07-07T18:17:16.974Z,23.73
2018-07-07T18:19:45.420Z,23.38
2018-07-07T18:22:13.939Z,24.33
2018-07-07T18:24:42.240Z,24.10
2018-07-07T18:27:10.510Z,24.27
2018-07-07T18:29:38.795Z,24.09
2018-07-07T18:32:07.450Z,24.06
2018-07-07T18:34:35.809Z,24.18
2018-07-07T18:37:05.365Z,24.44
2018-07-07T18:39:33.802Z,24.46
2018-07-07T18:42:02.366Z,24.42
2018-07-07T18:44:30.797Z,24.63
2018-07-07T18:46:59.132Z,24.30
2018-07-07T18:49:28.101Z,24.68
2018-07-07T18:51:56.910Z,24.66
2018-07-07T18:54:25.270Z,24.51
2018-07-07T18:56:53.913Z,24.27
2018-07-07T18:59:22.127Z,24.75
2018-07-07T19:01:50.523Z,24.96
2018-07-07T19:04:18.870Z,24.33
2018-07-07T19:06:47.265Z,24.65
2018-07-07T19:09:15.661Z,24.62
2018-07-07T19:11:44.272Z,25.38
2018-07-07T19:14:12.840Z,25.00
2018-07-07T19:16:41.111Z,24.86
2018-07-07T19:19:09.421Z,25.14
2018-07-07T19:21:43.827Z,25.50
2018-07-07T19:24:17.931Z,26.30
2018-07-07T19:26:49.555Z,25.92
2018-07-07T19:29:18.367Z,26.79
2018-07-07T19:31:52.261Z,26.36
2018-07-07T19:36:31.413Z,26.99
2018-07-07T19:38:59.930Z,26.95
2018-07-07T19:41:28.509Z,27.17
2018-07-07T19:43:57.233Z,27.36
2018-07-07T19:46:25.607Z,28.26
2018-07-07T19:48:54.095Z,28.28
2018-07-07T19:51:22.433Z,28.26
2018-07-07T19:53:50.775Z,28.54
2018-07-07T19:56:19.025Z,28.70
2018-07-07T19:58:47.404Z,29.28
2018-07-07T20:01:15.836Z,29.46
2018-07-07T20:03:44.143Z,29.96
2018-07-07T20:06:12.526Z,30.11
2018-07-07T20:08:40.811Z,30.46
2018-07-07T20:11:09.029Z,30.79
2018-07-07T20:13:37.361Z,30.80
2018-07-07T20:16:12.520Z,30.88
2018-07-07T20:19:03.851Z,30.24
2018-07-07T20:22:05.782Z,30.35
2018-07-07T20:24:37.147Z,30.74
2018-07-07T20:27:12.262Z,29.62
2018-07-07T20:29:40.718Z,29.20
2018-07-07T20:32:14.696Z,29.49
2018-07-07T20:34:43.128Z,28.61
2018-07-07T20:37:11.399Z,29.55
2018-07-07T20:39:39.913Z,29.28
2018-07-07T20:42:14.465Z,29.58
2018-07-07T20:44:42.878Z,29.71
2018-07-07T20:47:11.235Z,29.84
2018-07-07T20:49:39.937Z,30.40
2018-07-07T20:52:08.410Z,30.37
2018-07-07T20:54:36.855Z,30.75
2018-07-07T20:57:05.207Z,31.05
2018-07-07T20:59:33.498Z,30.23
2018-07-07T21:02:02.234Z,31.06
2018-07-07T21:04:30.643Z,31.31
2018-07-07T21:06:59.369Z,31.41
2018-07-07T21:09:27.735Z,30.42
2018-07-07T21:11:56.051Z,31.22
2018-07-07T21:14:24.273Z,30.74
2018-07-07T21:16:52.533Z,31.08
2018-07-07T21:19:20.691Z,30.77
2018-07-07T21:21:49.018Z,30.87
2018-07-07T21:24:17.547Z,31.15
2018-07-07T21:26:45.981Z,31.17
2018-07-07T21:29:14.299Z,31.30
2018-07-07T21:31:42.888Z,31.28
2018-07-07T21:34:11.408Z,32.06
2018-07-07T21:36:39.638Z,32.05
2018-07-07T21:39:07.936Z,33.07
2018-07-07T21:41:36.220Z,32.86
2018-07-07T21:44:04.939Z,32.97
2018-07-07T21:46:33.160Z,33.27
2018-07-07T21:49:01.542Z,33.62
2018-07-07T21:51:29.921Z,33.30
2018-07-07T21:53:58.316Z,33.24
2018-07-07T21:56:26.615Z,33.75
2018-07-07T21:59:29.132Z,33.42
2018-07-07T22:02:03.254Z,33.21
2018-07-07T22:04:37.380Z,33.76
2018-07-07T22:07:13.077Z,33.54
2018-07-07T22:09:42.331Z,32.67
2018-07-07T22:12:10.768Z,33.13
2018-07-07T22:14:39.092Z,32.46
2018-07-07T22:17:07.449Z,32.46
2018-07-07T22:19:35.793Z,32.37
2018-07-07T22:22:08.895Z,33.26
2018-07-07T22:24:37.785Z,32.52
2018-07-07T22:27:07.765Z,33.44
2018-07-07T22:29:36.101Z,33.42
2018-07-07T22:32:21.870Z,33.85
2018-07-07T22:34:50.757Z,33.78
2018-07-07T22:37:19.094Z,33.80
2018-07-07T22:39:47.569Z,33.72
2018-07-07T22:42:21.085Z,33.30
2018-07-07T22:44:49.913Z,32.86
2018-07-07T22:47:19.362Z,32.32
2018-07-07T22:49:49.014Z,32.46
2018-07-07T22:52:18.167Z,32.79
2018-07-07T22:54:49.656Z,32.71
2018-07-07T22:57:18.203Z,33.21
2018-07-07T22:59:46.468Z,33.00
2018-07-07T23:02:14.842Z,32.72
2018-07-07T23:04:43.247Z,32.91
2018-07-07T23:07:11.833Z,33.37
2018-07-07T23:09:40.931Z,33.14
2018-07-07T23:12:10.333Z,34.10
2018-07-07T23:14:38.757Z,34.30
2018-07-07T23:17:11.697Z,35.01
2018-07-07T23:19:40.381Z,35.36
2018-07-07T23:22:09.176Z,36.79
2018-07-07T23:24:38.048Z,37.48
2018-07-07T23:27:06.294Z,37.63
2018-07-07T23:29:34.707Z,37.09
2018-07-07T23:32:03.205Z,37.56
2018-07-07T23:34:32.491Z,38.23
2018-07-07T23:37:00.873Z,38.17
2018-07-07T23:39:29.189Z,38.21
2018-07-07T23:41:57.561Z,38.60
2018-07-07T23:44:25.874Z,38.91
2018-07-07T23:46:59.119Z,38.87
2018-07-07T23:49:27.365Z,39.60
2018-07-07T23:51:55.653Z,40.02
2018-07-07T23:54:24.168Z,39.50
2018-07-07T23:56:52.846Z,39.99
2018-07-07T23:59:22.243Z,39.87
